AIRPORT ID: KIYK

DATE: 2021-12-08 ZULU TIME: 23.55 LOCAL TIME: 15.55


METAR KIYK 082355Z AUTO 22014G29KT 10SM 19/00 A2984

ALTIMETER: A2984 Q1010

DENSITY ALT: 3500 Ft

WIND DIRECT: 230

WIND SPEED: 14 Gust

WIND CONDITIONS:

VISIBILTY: 10SM 9999M

TEMPERATURE: 66 F 19 C

DEW POINT: 32 F 0 C

HUMID: 28%

LCL: Above 5,000 feet

RADIO CHECK: 0

ADVISARIES: 1

GREETINGS: 0

CONVERSATIONS: 4